sensor_id;sensor_type;location;lat;lon;timestamp;temperature;humidity
6333;DHT22;3199;49.102;8.856;2022-12-08T00:00:42;1.10;99.90
6333;DHT22;3199;49.102;8.856;2022-12-08T00:03:08;1.00;99.90
6333;DHT22;3199;49.102;8.856;2022-12-08T00:05:33;1.10;99.90
6333;DHT22;3199;49.102;8.856;2022-12-08T00:08:17;1.00;99.90
6333;DHT22;3199;49.102;8.856;2022-12-08T00:11:01;1.00;99.90
6333;DHT22;3199;49.102;8.856;2022-12-08T00:13:27;1.00;99.90
6333;DHT22;3199;49.102;8.856;2022-12-08T00:15:59;1.00;99.90
6333;DHT22;3199;49.102;8.856;2022-12-08T00:18:24;1.00;99.90
6333;DHT22;3199;49.102;8.856;2022-12-08T00:20:57;1.00;99.90
6333;DHT22;3199;49.102;8.856;2022-12-08T00:23:23;1.00;99.90
6333;DHT22;3199;49.102;8.856;2022-12-08T00:25:48;1.00;99.90
6333;DHT22;3199;49.102;8.856;2022-12-08T00:28:15;1.00;99.90
6333;DHT22;3199;49.102;8.856;2022-12-08T00:30:41;1.00;99.90
6333;DHT22;3199;49.102;8.856;2022-12-08T00:33:07;1.00;99.90
6333;DHT22;3199;49.102;8.856;2022-12-08T00:35:33;1.00;99.90
6333;DHT22;3199;49.102;8.856;2022-12-08T00:37:58;1.00;99.90
6333;DHT22;3199;49.102;8.856;2022-12-08T00:40:24;1.00;99.90
6333;DHT22;3199;49.102;8.856;2022-12-08T00:42:49;1.00;99.90
6333;DHT22;3199;49.102;8.856;2022-12-08T00:45:15;1.00;99.90
6333;DHT22;3199;49.102;8.856;2022-12-08T00:47:41;1.00;99.90
6333;DHT22;3199;49.102;8.856;2022-12-08T00:50:06;1.00;99.90
6333;DHT22;3199;49.102;8.856;2022-12-08T00:52:32;1.00;99.90
6333;DHT22;3199;49.102;8.856;2022-12-08T00:54:58;1.00;99.90
6333;DHT22;3199;49.102;8.856;2022-12-08T00:57:23;1.00;99.90
6333;DHT22;3199;49.102;8.856;2022-12-08T00:59:49;1.00;99.90
6333;DHT22;3199;49.102;8.856;2022-12-08T01:02:14;1.00;99.90
6333;DHT22;3199;49.102;8.856;2022-12-08T01:04:40;1.00;99.90
6333;DHT22;3199;49.102;8.856;2022-12-08T01:07:06;1.00;99.90
6333;DHT22;3199;49.102;8.856;2022-12-08T01:09:31;1.00;99.90
6333;DHT22;3199;49.102;8.856;2022-12-08T01:11:57;1.00;99.90
6333;DHT22;3199;49.102;8.856;2022-12-08T01:14:22;1.00;99.90
6333;DHT22;3199;49.102;8.856;2022-12-08T01:16:48;1.00;99.90
6333;DHT22;3199;49.102;8.856;2022-12-08T01:19:15;1.00;99.90
6333;DHT22;3199;49.102;8.856;2022-12-08T01:21:41;1.00;99.90
6333;DHT22;3199;49.102;8.856;2022-12-08T01:24:15;1.00;99.90
6333;DHT22;3199;49.102;8.856;2022-12-08T01:26:40;1.00;99.90
6333;DHT22;3199;49.102;8.856;2022-12-08T01:29:06;1.00;99.90
6333;DHT22;3199;49.102;8.856;2022-12-08T01:31:31;1.00;99.90
6333;DHT22;3199;49.102;8.856;2022-12-08T01:33:57;1.00;99.90
6333;DHT22;3199;49.102;8.856;2022-12-08T01:36:28;1.00;99.90
6333;DHT22;3199;49.102;8.856;2022-12-08T01:38:56;1.00;99.90
6333;DHT22;3199;49.102;8.856;2022-12-08T01:41:23;1.00;99.90
6333;DHT22;3199;49.102;8.856;2022-12-08T01:44:01;1.00;99.90
6333;DHT22;3199;49.102;8.856;2022-12-08T01:46:29;1.10;99.90
6333;DHT22;3199;49.102;8.856;2022-12-08T01:51:41;1.10;99.90
6333;DHT22;3199;49.102;8.856;2022-12-08T01:54:08;1.10;99.90
6333;DHT22;3199;49.102;8.856;2022-12-08T01:56:55;1.20;99.90
6333;DHT22;3199;49.102;8.856;2022-12-08T01:59:23;1.10;99.90
6333;DHT22;3199;49.102;8.856;2022-12-08T02:01:49;1.10;99.90
6333;DHT22;3199;49.102;8.856;2022-12-08T02:04:15;1.10;99.90
6333;DHT22;3199;49.102;8.856;2022-12-08T02:06:42;1.10;99.90
6333;DHT22;3199;49.102;8.856;2022-12-08T02:09:09;1.10;99.90
6333;DHT22;3199;49.102;8.856;2022-12-08T02:11:35;1.10;99.90
6333;DHT22;3199;49.102;8.856;2022-12-08T02:14:03;1.10;99.90
6333;DHT22;3199;49.102;8.856;2022-12-08T02:16:50;1.10;99.90
6333;DHT22;3199;49.102;8.856;2022-12-08T02:23:21;1.10;99.90
6333;DHT22;3199;49.102;8.856;2022-12-08T02:30:26;1.10;99.90
6333;DHT22;3199;49.102;8.856;2022-12-08T02:36:03;1.10;99.90
6333;DHT22;3199;49.102;8.856;2022-12-08T02:44:12;1.00;99.90
6333;DHT22;3199;49.102;8.856;2022-12-08T02:46:46;1.00;99.90
6333;DHT22;3199;49.102;8.856;2022-12-08T02:49:12;0.90;99.90
6333;DHT22;3199;49.102;8.856;2022-12-08T02:51:39;0.80;99.90
6333;DHT22;3199;49.102;8.856;2022-12-08T02:54:05;0.80;99.90
6333;DHT22;3199;49.102;8.856;2022-12-08T02:59:43;0.80;99.90
6333;DHT22;3199;49.102;8.856;2022-12-08T03:05:09;0.80;99.90
6333;DHT22;3199;49.102;8.856;2022-12-08T03:08:08;0.70;99.90
6333;DHT22;3199;49.102;8.856;2022-12-08T03:11:01;0.70;99.90
6333;DHT22;3199;49.102;8.856;2022-12-08T03:13:42;0.70;99.90
6333;DHT22;3199;49.102;8.856;2022-12-08T03:16:10;0.70;99.90
6333;DHT22;3199;49.102;8.856;2022-12-08T03:18:41;0.70;99.90
6333;DHT22;3199;49.102;8.856;2022-12-08T03:21:09;0.80;99.90
6333;DHT22;3199;49.102;8.856;2022-12-08T03:23:35;0.80;99.90
6333;DHT22;3199;49.102;8.856;2022-12-08T03:26:14;0.80;99.90
6333;DHT22;3199;49.102;8.856;2022-12-08T03:28:41;0.80;99.90
6333;DHT22;3199;49.102;8.856;2022-12-08T03:31:09;0.80;99.90
6333;DHT22;3199;49.102;8.856;2022-12-08T03:33:39;0.80;99.90
6333;DHT22;3199;49.102;8.856;2022-12-08T03:36:07;0.90;99.90
6333;DHT22;3199;49.102;8.856;2022-12-08T03:38:42;0.90;99.90
6333;DHT22;3199;49.102;8.856;2022-12-08T03:41:07;0.90;99.90
6333;DHT22;3199;49.102;8.856;2022-12-08T03:43:46;1.00;99.90
6333;DHT22;3199;49.102;8.856;2022-12-08T03:46:13;1.00;99.90
6333;DHT22;3199;49.102;8.856;2022-12-08T03:48:39;1.00;99.90
6333;DHT22;3199;49.102;8.856;2022-12-08T03:51:04;1.00;99.90
6333;DHT22;3199;49.102;8.856;2022-12-08T03:53:30;1.00;99.90
6333;DHT22;3199;49.102;8.856;2022-12-08T03:55:55;1.10;99.90
6333;DHT22;3199;49.102;8.856;2022-12-08T03:58:21;1.10;99.90
6333;DHT22;3199;49.102;8.856;2022-12-08T04:00:46;1.10;99.90
6333;DHT22;3199;49.102;8.856;2022-12-08T04:03:12;1.10;99.90
6333;DHT22;3199;49.102;8.856;2022-12-08T04:05:37;1.20;99.90
6333;DHT22;3199;49.102;8.856;2022-12-08T04:08:03;1.20;99.90
6333;DHT22;3199;49.102;8.856;2022-12-08T04:10:29;1.20;99.90
6333;DHT22;3199;49.102;8.856;2022-12-08T04:12:55;1.20;99.90
6333;DHT22;3199;49.102;8.856;2022-12-08T04:15:21;1.20;99.90
6333;DHT22;3199;49.102;8.856;2022-12-08T04:17:46;1.20;99.90
6333;DHT22;3199;49.102;8.856;2022-12-08T04:20:12;1.20;99.90
6333;DHT22;3199;49.102;8.856;2022-12-08T04:22:37;1.20;99.90
6333;DHT22;3199;49.102;8.856;2022-12-08T04:25:03;1.20;99.90
6333;DHT22;3199;49.102;8.856;2022-12-08T04:27:29;1.20;99.90
6333;DHT22;3199;49.102;8.856;2022-12-08T04:29:54;1.30;99.90
6333;DHT22;3199;49.102;8.856;2022-12-08T04:32:20;1.30;99.90
6333;DHT22;3199;49.102;8.856;2022-12-08T04:34:45;1.30;99.90
6333;DHT22;3199;49.102;8.856;2022-12-08T04:37:11;1.30;99.90
6333;DHT22;3199;49.102;8.856;2022-12-08T04:39:36;1.30;99.90
6333;DHT22;3199;49.102;8.856;2022-12-08T04:42:02;1.30;99.90
6333;DHT22;3199;49.102;8.856;2022-12-08T04:44:27;1.30;99.90
6333;DHT22;3199;49.102;8.856;2022-12-08T04:46:53;1.30;99.90
6333;DHT22;3199;49.102;8.856;2022-12-08T04:49:18;1.40;99.90
6333;DHT22;3199;49.102;8.856;2022-12-08T04:51:44;1.30;99.90
6333;DHT22;3199;49.102;8.856;2022-12-08T04:54:09;1.40;99.90
6333;DHT22;3199;49.102;8.856;2022-12-08T04:56:35;1.40;99.90
6333;DHT22;3199;49.102;8.856;2022-12-08T04:59:02;1.40;99.90
6333;DHT22;3199;49.102;8.856;2022-12-08T05:01:27;1.40;99.90
6333;DHT22;3199;49.102;8.856;2022-12-08T05:03:53;1.30;99.90
6333;DHT22;3199;49.102;8.856;2022-12-08T05:06:18;1.30;99.90
6333;DHT22;3199;49.102;8.856;2022-12-08T05:08:44;1.30;99.90
6333;DHT22;3199;49.102;8.856;2022-12-08T05:11:11;1.30;99.90
6333;DHT22;3199;49.102;8.856;2022-12-08T05:13:37;1.30;99.90
6333;DHT22;3199;49.102;8.856;2022-12-08T05:18:29;1.40;99.90
6333;DHT22;3199;49.102;8.856;2022-12-08T05:20:54;1.40;99.90
6333;DHT22;3199;49.102;8.856;2022-12-08T05:23:20;1.40;99.90
6333;DHT22;3199;49.102;8.856;2022-12-08T05:25:45;1.40;99.90
6333;DHT22;3199;49.102;8.856;2022-12-08T05:28:11;1.40;99.90
6333;DHT22;3199;49.102;8.856;2022-12-08T05:30:36;1.40;99.90
6333;DHT22;3199;49.102;8.856;2022-12-08T05:33:02;1.40;99.90
6333;DHT22;3199;49.102;8.856;2022-12-08T05:35:27;1.40;99.90
6333;DHT22;3199;49.102;8.856;2022-12-08T05:37:53;1.40;99.90
6333;DHT22;3199;49.102;8.856;2022-12-08T05:40:18;1.40;99.90
6333;DHT22;3199;49.102;8.856;2022-12-08T05:42:44;1.40;99.90
6333;DHT22;3199;49.102;8.856;2022-12-08T05:45:10;1.40;99.90
6333;DHT22;3199;49.102;8.856;2022-12-08T05:47:35;1.40;99.90
6333;DHT22;3199;49.102;8.856;2022-12-08T05:50:01;1.40;99.90
6333;DHT22;3199;49.102;8.856;2022-12-08T05:52:26;1.30;99.90
6333;DHT22;3199;49.102;8.856;2022-12-08T05:54:52;1.20;99.90
6333;DHT22;3199;49.102;8.856;2022-12-08T05:57:17;1.20;99.90
6333;DHT22;3199;49.102;8.856;2022-12-08T05:59:43;1.10;99.90
6333;DHT22;3199;49.102;8.856;2022-12-08T06:02:09;1.10;99.90
6333;DHT22;3199;49.102;8.856;2022-12-08T06:04:35;1.10;99.90
6333;DHT22;3199;49.102;8.856;2022-12-08T06:07:00;1.10;99.90
6333;DHT22;3199;49.102;8.856;2022-12-08T06:09:26;1.10;99.90
6333;DHT22;3199;49.102;8.856;2022-12-08T06:11:51;1.10;99.90
6333;DHT22;3199;49.102;8.856;2022-12-08T06:14:17;1.20;99.90
6333;DHT22;3199;49.102;8.856;2022-12-08T06:16:42;1.20;99.90
6333;DHT22;3199;49.102;8.856;2022-12-08T06:19:08;1.20;99.90
6333;DHT22;3199;49.102;8.856;2022-12-08T06:21:33;1.30;99.90
6333;DHT22;3199;49.102;8.856;2022-12-08T06:23:59;1.30;99.90
6333;DHT22;3199;49.102;8.856;2022-12-08T06:26:25;1.30;99.90
6333;DHT22;3199;49.102;8.856;2022-12-08T06:28:50;1.40;99.90
6333;DHT22;3199;49.102;8.856;2022-12-08T06:31:19;1.40;99.90
6333;DHT22;3199;49.102;8.856;2022-12-08T06:33:45;1.40;99.90
6333;DHT22;3199;49.102;8.856;2022-12-08T06:36:12;1.40;99.90
6333;DHT22;3199;49.102;8.856;2022-12-08T06:38:39;1.40;99.90
6333;DHT22;3199;49.102;8.856;2022-12-08T06:41:05;1.40;99.90
6333;DHT22;3199;49.102;8.856;2022-12-08T06:43:31;1.40;99.90
6333;DHT22;3199;49.102;8.856;2022-12-08T06:45:58;1.40;99.90
6333;DHT22;3199;49.102;8.856;2022-12-08T06:48:23;1.40;99.90
6333;DHT22;3199;49.102;8.856;2022-12-08T06:50:49;1.40;99.90
6333;DHT22;3199;49.102;8.856;2022-12-08T06:53:15;1.40;99.90
6333;DHT22;3199;49.102;8.856;2022-12-08T06:55:44;1.40;99.90
6333;DHT22;3199;49.102;8.856;2022-12-08T06:58:11;1.40;99.90
6333;DHT22;3199;49.102;8.856;2022-12-08T07:00:38;1.40;99.90
6333;DHT22;3199;49.102;8.856;2022-12-08T07:03:03;1.50;99.90
6333;DHT22;3199;49.102;8.856;2022-12-08T07:05:29;1.50;99.90
6333;DHT22;3199;49.102;8.856;2022-12-08T07:07:54;1.50;99.90
6333;DHT22;3199;49.102;8.856;2022-12-08T07:10:20;1.50;99.90
6333;DHT22;3199;49.102;8.856;2022-12-08T07:12:45;1.50;99.90
6333;DHT22;3199;49.102;8.856;2022-12-08T07:15:11;1.50;99.90
6333;DHT22;3199;49.102;8.856;2022-12-08T07:17:36;1.50;99.90
6333;DHT22;3199;49.102;8.856;2022-12-08T07:20:02;1.60;99.90
6333;DHT22;3199;49.102;8.856;2022-12-08T07:22:28;1.60;99.90
6333;DHT22;3199;49.102;8.856;2022-12-08T07:24:53;1.60;99.90
6333;DHT22;3199;49.102;8.856;2022-12-08T07:27:19;1.60;99.90
6333;DHT22;3199;49.102;8.856;2022-12-08T07:29:44;1.60;99.90
6333;DHT22;3199;49.102;8.856;2022-12-08T07:32:10;1.60;99.90
6333;DHT22;3199;49.102;8.856;2022-12-08T07:34:35;1.60;99.90
6333;DHT22;3199;49.102;8.856;2022-12-08T07:37:01;1.60;99.90
6333;DHT22;3199;49.102;8.856;2022-12-08T07:39:26;1.60;99.90
6333;DHT22;3199;49.102;8.856;2022-12-08T07:41:52;1.60;99.90
6333;DHT22;3199;49.102;8.856;2022-12-08T07:44:17;1.60;99.90
6333;DHT22;3199;49.102;8.856;2022-12-08T07:46:43;1.50;99.90
6333;DHT22;3199;49.102;8.856;2022-12-08T07:49:09;1.50;99.90
6333;DHT22;3199;49.102;8.856;2022-12-08T07:51:34;1.50;99.90
6333;DHT22;3199;49.102;8.856;2022-12-08T07:54:00;1.60;99.90
6333;DHT22;3199;49.102;8.856;2022-12-08T07:56:25;1.60;99.90
6333;DHT22;3199;49.102;8.856;2022-12-08T07:58:51;1.50;99.90
6333;DHT22;3199;49.102;8.856;2022-12-08T08:01:26;1.50;99.90
6333;DHT22;3199;49.102;8.856;2022-12-08T08:03:52;1.50;99.90
6333;DHT22;3199;49.102;8.856;2022-12-08T08:06:18;1.60;99.90
6333;DHT22;3199;49.102;8.856;2022-12-08T08:08:43;1.60;99.90
6333;DHT22;3199;49.102;8.856;2022-12-08T08:11:09;1.60;99.90
6333;DHT22;3199;49.102;8.856;2022-12-08T08:13:35;1.60;99.90
6333;DHT22;3199;49.102;8.856;2022-12-08T08:16:06;1.60;99.90
6333;DHT22;3199;49.102;8.856;2022-12-08T08:18:33;1.70;99.90
6333;DHT22;3199;49.102;8.856;2022-12-08T08:20:59;1.70;99.90
6333;DHT22;3199;49.102;8.856;2022-12-08T08:23:24;1.70;99.90
6333;DHT22;3199;49.102;8.856;2022-12-08T08:25:50;1.70;99.90
6333;DHT22;3199;49.102;8.856;2022-12-08T08:28:16;1.70;99.90
6333;DHT22;3199;49.102;8.856;2022-12-08T08:30:41;1.70;99.90
6333;DHT22;3199;49.102;8.856;2022-12-08T08:33:07;1.70;99.90
6333;DHT22;3199;49.102;8.856;2022-12-08T08:35:33;1.80;99.90
6333;DHT22;3199;49.102;8.856;2022-12-08T08:37:59;1.80;99.90
6333;DHT22;3199;49.102;8.856;2022-12-08T08:40:25;1.90;99.90
6333;DHT22;3199;49.102;8.856;2022-12-08T08:42:50;1.90;99.90
6333;DHT22;3199;49.102;8.856;2022-12-08T08:45:16;1.90;99.90
6333;DHT22;3199;49.102;8.856;2022-12-08T08:47:42;2.00;99.90
6333;DHT22;3199;49.102;8.856;2022-12-08T08:50:07;2.00;99.90
6333;DHT22;3199;49.102;8.856;2022-12-08T08:52:33;2.00;99.90
6333;DHT22;3199;49.102;8.856;2022-12-08T08:54:59;2.10;99.90
6333;DHT22;3199;49.102;8.856;2022-12-08T08:57:24;2.20;99.90
6333;DHT22;3199;49.102;8.856;2022-12-08T08:59:50;2.20;99.90
6333;DHT22;3199;49.102;8.856;2022-12-08T09:02:17;2.20;99.90
6333;DHT22;3199;49.102;8.856;2022-12-08T09:04:43;2.30;99.90
6333;DHT22;3199;49.102;8.856;2022-12-08T09:07:09;2.40;99.90
6333;DHT22;3199;49.102;8.856;2022-12-08T09:09:36;2.40;99.90
6333;DHT22;3199;49.102;8.856;2022-12-08T09:12:02;2.50;99.90
6333;DHT22;3199;49.102;8.856;2022-12-08T09:14:27;2.60;99.90
6333;DHT22;3199;49.102;8.856;2022-12-08T09:16:53;2.60;99.90
6333;DHT22;3199;49.102;8.856;2022-12-08T09:19:19;2.70;99.90
6333;DHT22;3199;49.102;8.856;2022-12-08T09:21:44;2.80;99.90
6333;DHT22;3199;49.102;8.856;2022-12-08T09:24:10;2.90;99.90
6333;DHT22;3199;49.102;8.856;2022-12-08T09:26:41;2.90;99.90
6333;DHT22;3199;49.102;8.856;2022-12-08T09:29:08;3.00;99.90
6333;DHT22;3199;49.102;8.856;2022-12-08T09:31:33;3.00;99.90
6333;DHT22;3199;49.102;8.856;2022-12-08T09:33:59;3.00;99.90
6333;DHT22;3199;49.102;8.856;2022-12-08T09:36:25;3.00;99.90
6333;DHT22;3199;49.102;8.856;2022-12-08T09:38:51;3.10;99.90
6333;DHT22;3199;49.102;8.856;2022-12-08T09:41:22;3.10;99.90
6333;DHT22;3199;49.102;8.856;2022-12-08T09:46:41;3.30;99.90
6333;DHT22;3199;49.102;8.856;2022-12-08T09:49:13;3.40;99.90
6333;DHT22;3199;49.102;8.856;2022-12-08T09:51:40;3.50;99.90
6333;DHT22;3199;49.102;8.856;2022-12-08T09:54:18;3.60;99.90
6333;DHT22;3199;49.102;8.856;2022-12-08T09:56:45;3.70;99.90
6333;DHT22;3199;49.102;8.856;2022-12-08T09:59:30;3.80;99.90
6333;DHT22;3199;49.102;8.856;2022-12-08T10:01:56;3.90;99.90
6333;DHT22;3199;49.102;8.856;2022-12-08T10:04:26;4.10;99.90
6333;DHT22;3199;49.102;8.856;2022-12-08T10:09:54;4.30;99.90
6333;DHT22;3199;49.102;8.856;2022-12-08T10:15:02;4.40;99.90
6333;DHT22;3199;49.102;8.856;2022-12-08T10:17:34;4.40;99.90
6333;DHT22;3199;49.102;8.856;2022-12-08T10:20:16;4.40;99.90
6333;DHT22;3199;49.102;8.856;2022-12-08T10:22:43;4.30;99.90
6333;DHT22;3199;49.102;8.856;2022-12-08T10:25:22;4.20;99.90
6333;DHT22;3199;49.102;8.856;2022-12-08T10:27:52;4.10;99.90
6333;DHT22;3199;49.102;8.856;2022-12-08T10:30:20;4.10;99.90
6333;DHT22;3199;49.102;8.856;2022-12-08T10:32:48;4.20;99.90
6333;DHT22;3199;49.102;8.856;2022-12-08T10:35:16;4.20;99.90
6333;DHT22;3199;49.102;8.856;2022-12-08T10:37:54;4.20;99.90
6333;DHT22;3199;49.102;8.856;2022-12-08T10:40:21;4.20;99.90
6333;DHT22;3199;49.102;8.856;2022-12-08T10:42:52;4.30;99.90
6333;DHT22;3199;49.102;8.856;2022-12-08T10:50:55;4.30;99.90
6333;DHT22;3199;49.102;8.856;2022-12-08T10:53:26;4.30;99.90
6333;DHT22;3199;49.102;8.856;2022-12-08T11:00:53;4.10;99.90
6333;DHT22;3199;49.102;8.856;2022-12-08T11:03:28;4.10;99.90
6333;DHT22;3199;49.102;8.856;2022-12-08T11:05:56;4.10;99.90
6333;DHT22;3199;49.102;8.856;2022-12-08T11:08:22;4.10;99.90
6333;DHT22;3199;49.102;8.856;2022-12-08T11:10:48;4.10;99.90
6333;DHT22;3199;49.102;8.856;2022-12-08T11:13:25;4.10;99.90
6333;DHT22;3199;49.102;8.856;2022-12-08T11:15:52;4.00;99.90
6333;DHT22;3199;49.102;8.856;2022-12-08T11:18:38;4.00;99.90
6333;DHT22;3199;49.102;8.856;2022-12-08T11:21:16;4.00;99.90
6333;DHT22;3199;49.102;8.856;2022-12-08T11:23:46;4.00;99.90
6333;DHT22;3199;49.102;8.856;2022-12-08T11:26:20;4.10;99.90
6333;DHT22;3199;49.102;8.856;2022-12-08T11:28:47;4.10;99.90
6333;DHT22;3199;49.102;8.856;2022-12-08T11:31:25;4.10;99.90
6333;DHT22;3199;49.102;8.856;2022-12-08T11:33:52;4.10;99.90
6333;DHT22;3199;49.102;8.856;2022-12-08T11:36:20;4.10;99.90
6333;DHT22;3199;49.102;8.856;2022-12-08T11:38:48;4.10;99.90
6333;DHT22;3199;49.102;8.856;2022-12-08T11:41:19;4.00;99.90
6333;DHT22;3199;49.102;8.856;2022-12-08T11:46:42;4.00;99.90
6333;DHT22;3199;49.102;8.856;2022-12-08T11:49:11;4.00;99.90
6333;DHT22;3199;49.102;8.856;2022-12-08T11:51:55;4.00;99.90
6333;DHT22;3199;49.102;8.856;2022-12-08T11:54:29;4.00;99.90
6333;DHT22;3199;49.102;8.856;2022-12-08T11:57:01;4.00;99.90
6333;DHT22;3199;49.102;8.856;2022-12-08T11:59:32;4.00;99.90
6333;DHT22;3199;49.102;8.856;2022-12-08T12:02:00;4.10;99.90
6333;DHT22;3199;49.102;8.856;2022-12-08T12:05:07;4.20;99.90
6333;DHT22;3199;49.102;8.856;2022-12-08T12:11:30;4.40;99.90
6333;DHT22;3199;49.102;8.856;2022-12-08T12:13:35;4.40;99.90
6333;DHT22;3199;49.102;8.856;2022-12-08T12:18:59;4.40;99.90
6333;DHT22;3199;49.102;8.856;2022-12-08T12:24:15;4.60;99.90
6333;DHT22;3199;49.102;8.856;2022-12-08T12:27:04;4.50;99.90
6333;DHT22;3199;49.102;8.856;2022-12-08T12:29:33;4.50;99.90
6333;DHT22;3199;49.102;8.856;2022-12-08T12:32:05;4.50;99.90
6333;DHT22;3199;49.102;8.856;2022-12-08T12:34:37;4.50;99.90
6333;DHT22;3199;49.102;8.856;2022-12-08T12:37:19;4.50;99.90
6333;DHT22;3199;49.102;8.856;2022-12-08T12:39:47;4.50;99.90
6333;DHT22;3199;49.102;8.856;2022-12-08T12:42:34;4.50;99.90
6333;DHT22;3199;49.102;8.856;2022-12-08T12:55:50;4.50;99.90
6333;DHT22;3199;49.102;8.856;2022-12-08T13:03:48;4.30;99.90
6333;DHT22;3199;49.102;8.856;2022-12-08T13:06:25;4.30;99.90
6333;DHT22;3199;49.102;8.856;2022-12-08T13:08:57;4.20;99.90
6333;DHT22;3199;49.102;8.856;2022-12-08T13:11:23;4.20;99.90
6333;DHT22;3199;49.102;8.856;2022-12-08T13:14:03;4.20;99.90
6333;DHT22;3199;49.102;8.856;2022-12-08T13:16:35;4.20;99.90
6333;DHT22;3199;49.102;8.856;2022-12-08T13:19:12;4.20;99.90
6333;DHT22;3199;49.102;8.856;2022-12-08T13:21:38;4.20;99.90
6333;DHT22;3199;49.102;8.856;2022-12-08T13:26:48;4.20;99.90
6333;DHT22;3199;49.102;8.856;2022-12-08T13:37:32;4.20;99.90
6333;DHT22;3199;49.102;8.856;2022-12-08T13:40:14;4.20;99.90
6333;DHT22;3199;49.102;8.856;2022-12-08T13:42:49;4.20;99.90
6333;DHT22;3199;49.102;8.856;2022-12-08T13:45:25;4.20;99.90
6333;DHT22;3199;49.102;8.856;2022-12-08T13:48:12;4.30;99.90
6333;DHT22;3199;49.102;8.856;2022-12-08T13:50:45;4.40;99.90
6333;DHT22;3199;49.102;8.856;2022-12-08T13:55:44;4.30;99.90
6333;DHT22;3199;49.102;8.856;2022-12-08T13:58:28;4.30;99.90
6333;DHT22;3199;49.102;8.856;2022-12-08T14:03:50;4.30;99.90
6333;DHT22;3199;49.102;8.856;2022-12-08T14:06:30;4.30;99.90
6333;DHT22;3199;49.102;8.856;2022-12-08T14:09:01;4.20;99.90
6333;DHT22;3199;49.102;8.856;2022-12-08T14:11:34;4.10;99.90
6333;DHT22;3199;49.102;8.856;2022-12-08T14:14:02;4.10;99.90
6333;DHT22;3199;49.102;8.856;2022-12-08T14:16:37;4.10;99.90
6333;DHT22;3199;49.102;8.856;2022-12-08T14:19:18;4.00;99.90
6333;DHT22;3199;49.102;8.856;2022-12-08T14:21:55;4.00;99.90
6333;DHT22;3199;49.102;8.856;2022-12-08T14:24:30;4.00;99.90
6333;DHT22;3199;49.102;8.856;2022-12-08T14:27:05;4.00;99.90
6333;DHT22;3199;49.102;8.856;2022-12-08T14:29:43;3.90;99.90
6333;DHT22;3199;49.102;8.856;2022-12-08T14:34:51;3.90;99.90
6333;DHT22;3199;49.102;8.856;2022-12-08T14:37:18;3.90;99.90
6333;DHT22;3199;49.102;8.856;2022-12-08T14:39:44;3.90;99.90
6333;DHT22;3199;49.102;8.856;2022-12-08T14:42:23;3.90;99.90
6333;DHT22;3199;49.102;8.856;2022-12-08T14:44:55;3.80;99.90
6333;DHT22;3199;49.102;8.856;2022-12-08T14:47:22;3.80;99.90
6333;DHT22;3199;49.102;8.856;2022-12-08T14:49:52;3.70;99.90
6333;DHT22;3199;49.102;8.856;2022-12-08T14:52:18;3.70;99.90
6333;DHT22;3199;49.102;8.856;2022-12-08T14:54:43;3.70;99.90
6333;DHT22;3199;49.102;8.856;2022-12-08T14:57:12;3.70;99.90
6333;DHT22;3199;49.102;8.856;2022-12-08T14:59:40;3.70;99.90
6333;DHT22;3199;49.102;8.856;2022-12-08T15:04:52;3.60;99.90
6333;DHT22;3199;49.102;8.856;2022-12-08T15:07:25;3.60;99.90
6333;DHT22;3199;49.102;8.856;2022-12-08T15:12:56;3.50;99.90
6333;DHT22;3199;49.102;8.856;2022-12-08T15:15:22;3.50;99.90
6333;DHT22;3199;49.102;8.856;2022-12-08T15:17:50;3.50;99.90
6333;DHT22;3199;49.102;8.856;2022-12-08T15:22:56;3.50;99.90
6333;DHT22;3199;49.102;8.856;2022-12-08T15:25:22;3.50;99.90
6333;DHT22;3199;49.102;8.856;2022-12-08T15:27:48;3.50;99.90
6333;DHT22;3199;49.102;8.856;2022-12-08T15:30:15;3.50;99.90
6333;DHT22;3199;49.102;8.856;2022-12-08T15:32:42;3.50;99.90
6333;DHT22;3199;49.102;8.856;2022-12-08T15:35:12;3.50;99.90
6333;DHT22;3199;49.102;8.856;2022-12-08T15:37:38;3.50;99.90
6333;DHT22;3199;49.102;8.856;2022-12-08T15:40:05;3.50;99.90
6333;DHT22;3199;49.102;8.856;2022-12-08T15:42:31;3.40;99.90
6333;DHT22;3199;49.102;8.856;2022-12-08T15:44:56;3.50;99.90
6333;DHT22;3199;49.102;8.856;2022-12-08T15:47:23;3.50;99.90
6333;DHT22;3199;49.102;8.856;2022-12-08T15:49:50;3.50;99.90
6333;DHT22;3199;49.102;8.856;2022-12-08T15:52:19;3.50;99.90
6333;DHT22;3199;49.102;8.856;2022-12-08T15:54:45;3.50;99.90
6333;DHT22;3199;49.102;8.856;2022-12-08T15:57:23;3.50;99.90
6333;DHT22;3199;49.102;8.856;2022-12-08T15:59:49;3.50;99.90
6333;DHT22;3199;49.102;8.856;2022-12-08T16:02:15;3.50;99.90
6333;DHT22;3199;49.102;8.856;2022-12-08T16:04:41;3.50;99.90
6333;DHT22;3199;49.102;8.856;2022-12-08T16:07:17;3.50;99.90
6333;DHT22;3199;49.102;8.856;2022-12-08T16:09:43;3.50;99.90
6333;DHT22;3199;49.102;8.856;2022-12-08T16:12:14;3.50;99.90
6333;DHT22;3199;49.102;8.856;2022-12-08T16:14:58;3.50;99.90
6333;DHT22;3199;49.102;8.856;2022-12-08T16:17:25;3.50;99.90
6333;DHT22;3199;49.102;8.856;2022-12-08T16:19:51;3.50;99.90
6333;DHT22;3199;49.102;8.856;2022-12-08T16:22:22;3.60;99.90
6333;DHT22;3199;49.102;8.856;2022-12-08T16:24:49;3.50;99.90
6333;DHT22;3199;49.102;8.856;2022-12-08T16:29:48;3.50;99.90
6333;DHT22;3199;49.102;8.856;2022-12-08T16:32:14;3.50;99.90
6333;DHT22;3199;49.102;8.856;2022-12-08T16:34:40;3.50;99.90
6333;DHT22;3199;49.102;8.856;2022-12-08T16:37:11;3.50;99.90
6333;DHT22;3199;49.102;8.856;2022-12-08T16:39:38;3.50;99.90
6333;DHT22;3199;49.102;8.856;2022-12-08T16:42:03;3.50;99.90
6333;DHT22;3199;49.102;8.856;2022-12-08T16:44:47;3.50;99.90
6333;DHT22;3199;49.102;8.856;2022-12-08T16:47:13;3.40;99.90
6333;DHT22;3199;49.102;8.856;2022-12-08T16:49:39;3.40;99.90
6333;DHT22;3199;49.102;8.856;2022-12-08T16:52:05;3.40;99.90
6333;DHT22;3199;49.102;8.856;2022-12-08T16:54:30;3.40;99.90
6333;DHT22;3199;49.102;8.856;2022-12-08T16:56:56;3.40;99.90
6333;DHT22;3199;49.102;8.856;2022-12-08T16:59:22;3.30;99.90
6333;DHT22;3199;49.102;8.856;2022-12-08T17:01:47;3.30;99.90
6333;DHT22;3199;49.102;8.856;2022-12-08T17:04:13;3.30;99.90
6333;DHT22;3199;49.102;8.856;2022-12-08T17:06:39;3.30;99.90
6333;DHT22;3199;49.102;8.856;2022-12-08T17:09:04;3.30;99.90
6333;DHT22;3199;49.102;8.856;2022-12-08T17:11:30;3.30;99.90
6333;DHT22;3199;49.102;8.856;2022-12-08T17:13:57;3.20;99.90
6333;DHT22;3199;49.102;8.856;2022-12-08T17:16:23;3.20;99.90
6333;DHT22;3199;49.102;8.856;2022-12-08T17:18:49;3.20;99.90
6333;DHT22;3199;49.102;8.856;2022-12-08T17:21:16;3.20;99.90
6333;DHT22;3199;49.102;8.856;2022-12-08T17:23:42;3.20;99.90
6333;DHT22;3199;49.102;8.856;2022-12-08T17:26:08;3.20;99.90
6333;DHT22;3199;49.102;8.856;2022-12-08T17:28:34;3.10;99.90
6333;DHT22;3199;49.102;8.856;2022-12-08T17:30:59;3.10;99.90
6333;DHT22;3199;49.102;8.856;2022-12-08T17:33:25;3.10;99.90
6333;DHT22;3199;49.102;8.856;2022-12-08T17:35:52;3.10;99.90
6333;DHT22;3199;49.102;8.856;2022-12-08T17:38:19;3.10;99.90
6333;DHT22;3199;49.102;8.856;2022-12-08T17:40:46;3.00;99.90
6333;DHT22;3199;49.102;8.856;2022-12-08T17:43:12;3.00;99.90
6333;DHT22;3199;49.102;8.856;2022-12-08T17:45:44;3.00;99.90
6333;DHT22;3199;49.102;8.856;2022-12-08T17:48:10;3.00;99.90
6333;DHT22;3199;49.102;8.856;2022-12-08T17:50:40;3.00;99.90
6333;DHT22;3199;49.102;8.856;2022-12-08T17:53:06;3.00;99.90
6333;DHT22;3199;49.102;8.856;2022-12-08T17:55:32;2.90;99.90
6333;DHT22;3199;49.102;8.856;2022-12-08T17:57:58;2.90;99.90
6333;DHT22;3199;49.102;8.856;2022-12-08T18:00:24;2.90;99.90
6333;DHT22;3199;49.102;8.856;2022-12-08T18:02:49;2.90;99.90
6333;DHT22;3199;49.102;8.856;2022-12-08T18:05:15;2.90;99.90
6333;DHT22;3199;49.102;8.856;2022-12-08T18:07:40;2.90;99.90
6333;DHT22;3199;49.102;8.856;2022-12-08T18:10:06;2.90;99.90